Time;durP1;ratioP1;P1;durP2;ratioP2;P2;SDS_P1;SDS_P2;PMS_P1;PMS_P2;Temp;Humidity;BMP_temperature;BMP_pressure;BME280_temperature;BME280_humidity;BME280_pressure;Samples;Min_cycle;Max_cycle;Signal;HPM_P1;HPM_P2
2022/06/04 00:00:37;;;;;;;16.88;11.55;;;;;;;;;;4863978;29;20099;-62
2022/06/04 00:03:02;;;;;;;15.73;12.02;;;;;;;;;;4863628;29;20214;-63
2022/06/04 00:05:29;;;;;;;17.90;11.77;;;;;;;;;;4861410;29;20040;-64
2022/06/04 00:07:55;;;;;;;18.60;12.40;;;;;;;;;;4862562;29;20055;-62
2022/06/04 00:15:54;;;;;;;20.42;12.63;;;;;;;;;;4861210;29;20404;-63
2022/06/04 00:18:20;;;;;;;18.60;13.80;;;;;;;;;;4861703;29;20631;-62
2022/06/04 00:20:48;;;;;;;19.73;12.93;;;;;;;;;;4847913;29;20250;-62
2022/06/04 00:23:14;;;;;;;19.50;14.43;;;;;;;;;;4843384;29;20051;-63
2022/06/04 00:25:49;;;;;;;21.15;13.80;;;;;;;;;;4862994;29;21817;-63
2022/06/04 00:28:14;;;;;;;22.15;13.60;;;;;;;;;;4841035;29;20535;-63
2022/06/04 00:30:40;;;;;;;17.23;13.43;;;;;;;;;;4846479;29;20184;-62
2022/06/04 00:33:05;;;;;;;20.58;13.73;;;;;;;;;;4864094;29;20248;-62
2022/06/04 00:35:31;;;;;;;21.17;13.27;;;;;;;;;;4845148;29;20134;-62
2022/06/04 00:37:57;;;;;;;19.55;13.43;;;;;;;;;;4860220;29;20044;-63
2022/06/04 00:40:22;;;;;;;18.00;13.73;;;;;;;;;;4863311;29;20115;-62
2022/06/04 00:42:49;;;;;;;20.52;13.10;;;;;;;;;;4861103;29;20130;-63
2022/06/04 00:45:14;;;;;;;18.92;12.98;;;;;;;;;;4845228;29;20147;-62
2022/06/04 00:47:41;;;;;;;17.38;12.93;;;;;;;;;;4858477;29;20377;-63
2022/06/04 00:50:08;;;;;;;21.58;12.57;;;;;;;;;;4860171;29;20072;-63
2022/06/04 00:52:34;;;;;;;19.48;12.70;;;;;;;;;;4846909;29;20163;-63
2022/06/04 00:55:00;;;;;;;19.52;13.15;;;;;;;;;;4862716;29;20068;-62
2022/06/04 00:57:39;;;;;;;20.30;12.65;;;;;;;;;;4863182;29;20433;-62
2022/06/04 01:00:06;;;;;;;19.80;11.98;;;;;;;;;;4835878;29;20047;-61
2022/06/04 01:02:41;;;;;;;18.45;11.77;;;;;;;;;;4862643;29;20051;-62
2022/06/04 01:05:38;;;;;;;17.63;11.95;;;;;;;;;;4862306;29;20298;-63
2022/06/04 01:08:23;;;;;;;20.63;12.63;;;;;;;;;;4816944;29;20245;-63
2022/06/04 01:10:53;;;;;;;19.83;11.98;;;;;;;;;;4863375;29;20044;-63
2022/06/04 01:13:27;;;;;;;23.67;13.90;;;;;;;;;;4862276;29;20155;-62
2022/06/04 01:15:57;;;;;;;21.40;12.82;;;;;;;;;;4862142;29;20040;-62
2022/06/04 01:18:25;;;;;;;19.60;12.70;;;;;;;;;;4861025;29;20068;-62
2022/06/04 01:21:00;;;;;;;20.88;14.05;;;;;;;;;;4861153;29;20605;-62
2022/06/04 01:23:44;;;;;;;18.50;12.68;;;;;;;;;;4862225;29;20525;-62
2022/06/04 01:26:18;;;;;;;17.88;13.05;;;;;;;;;;4862925;29;20147;-63
2022/06/04 01:28:46;;;;;;;18.70;12.18;;;;;;;;;;4841227;29;20043;-63
2022/06/04 01:31:15;;;;;;;21.83;12.73;;;;;;;;;;4861448;29;20069;-63
2022/06/04 01:33:42;;;;;;;21.30;13.05;;;;;;;;;;4862035;29;20591;-61
2022/06/04 01:36:08;;;;;;;19.67;12.65;;;;;;;;;;4862770;29;20643;-64
2022/06/04 01:38:42;;;;;;;22.15;12.40;;;;;;;;;;4860692;29;20114;-61
2022/06/04 01:41:28;;;;;;;20.25;12.00;;;;;;;;;;4863332;29;20054;-62
2022/06/04 01:43:57;;;;;;;18.98;11.10;;;;;;;;;;4841815;29;20032;-63
2022/06/04 01:46:26;;;;;;;18.95;11.30;;;;;;;;;;4861757;29;20135;-63
2022/06/04 01:48:53;;;;;;;17.58;10.07;;;;;;;;;;4862757;29;20036;-63
2022/06/04 01:51:24;;;;;;;17.80;11.05;;;;;;;;;;4861816;29;20083;-64
2022/06/04 01:53:52;;;;;;;16.63;11.30;;;;;;;;;;4861200;29;20034;-63
2022/06/04 01:56:23;;;;;;;18.73;11.25;;;;;;;;;;4862259;29;20036;-62
2022/06/04 01:58:51;;;;;;;15.80;10.30;;;;;;;;;;4860697;29;20375;-62
2022/06/04 02:01:19;;;;;;;19.52;11.77;;;;;;;;;;4860129;29;20055;-64
2022/06/04 02:03:50;;;;;;;20.25;11.55;;;;;;;;;;4835184;29;20592;-64
2022/06/04 02:06:19;;;;;;;21.50;12.00;;;;;;;;;;4847016;29;20463;-62
2022/06/04 02:08:48;;;;;;;23.63;12.10;;;;;;;;;;4860582;29;20580;-62
2022/06/04 02:11:15;;;;;;;20.02;12.35;;;;;;;;;;4861383;29;20131;-62
2022/06/04 02:13:43;;;;;;;21.17;12.75;;;;;;;;;;4863433;29;20068;-62
2022/06/04 02:16:20;;;;;;;22.67;14.50;;;;;;;;;;4865985;29;20048;-62
2022/06/04 02:18:46;;;;;;;18.73;12.75;;;;;;;;;;4842099;29;20509;-62
2022/06/04 02:21:12;;;;;;;25.45;13.77;;;;;;;;;;4863062;29;20042;-62
2022/06/04 02:23:38;;;;;;;22.73;13.10;;;;;;;;;;4849748;29;20033;-62
2022/06/04 02:26:03;;;;;;;24.73;12.85;;;;;;;;;;4860168;29;20337;-62
2022/06/04 02:28:29;;;;;;;25.98;13.15;;;;;;;;;;4862713;29;20082;-64
2022/06/04 02:30:58;;;;;;;22.90;11.95;;;;;;;;;;4860603;29;20210;-63
2022/06/04 02:33:32;;;;;;;20.48;11.65;;;;;;;;;;4860696;29;20386;-65
2022/06/04 02:36:21;;;;;;;16.45;11.73;;;;;;;;;;4864982;29;20040;-63
2022/06/04 02:38:51;;;;;;;17.27;11.30;;;;;;;;;;4865083;29;20451;-64
2022/06/04 02:41:20;;;;;;;19.15;11.68;;;;;;;;;;4864247;29;20129;-62
2022/06/04 02:44:01;;;;;;;23.13;11.70;;;;;;;;;;4863945;29;20134;-61
2022/06/04 02:46:34;;;;;;;17.00;10.63;;;;;;;;;;4866102;29;20832;-64
2022/06/04 02:49:08;;;;;;;17.35;10.88;;;;;;;;;;4849621;29;20036;-64
2022/06/04 02:51:35;;;;;;;21.38;11.10;;;;;;;;;;4864877;29;20033;-62
2022/06/04 02:54:06;;;;;;;19.60;10.88;;;;;;;;;;4862308;29;20753;-61
2022/06/04 02:56:32;;;;;;;19.73;11.38;;;;;;;;;;4844874;29;20052;-60
2022/06/04 02:59:03;;;;;;;18.95;11.30;;;;;;;;;;4865735;29;20474;-61
2022/06/04 03:01:29;;;;;;;19.48;11.65;;;;;;;;;;4847369;29;20398;-62
2022/06/04 03:03:59;;;;;;;19.00;11.63;;;;;;;;;;4861928;29;20228;-62
2022/06/04 03:06:26;;;;;;;20.75;10.98;;;;;;;;;;4864809;29;20058;-63
2022/06/04 03:08:52;;;;;;;18.20;10.80;;;;;;;;;;4864597;29;20052;-64
2022/06/04 03:11:18;;;;;;;20.95;11.43;;;;;;;;;;4863834;29;20109;-63
2022/06/04 03:13:45;;;;;;;24.40;11.32;;;;;;;;;;4865370;29;20056;-63
2022/06/04 03:16:11;;;;;;;19.70;10.60;;;;;;;;;;4862702;29;20041;-63
2022/06/04 03:18:36;;;;;;;21.48;11.70;;;;;;;;;;4865780;29;20038;-65
2022/06/04 03:21:02;;;;;;;18.77;11.18;;;;;;;;;;4865376;29;20192;-63
2022/06/04 03:23:27;;;;;;;21.73;11.75;;;;;;;;;;4863277;29;20041;-62
2022/06/04 03:25:52;;;;;;;17.98;11.20;;;;;;;;;;4864624;29;20458;-62
2022/06/04 03:28:21;;;;;;;16.90;11.25;;;;;;;;;;4862882;29;20054;-64
2022/06/04 03:30:46;;;;;;;24.60;11.43;;;;;;;;;;4863884;29;20047;-64
2022/06/04 03:33:11;;;;;;;16.63;11.65;;;;;;;;;;4862994;29;20248;-61
2022/06/04 03:35:37;;;;;;;20.80;11.18;;;;;;;;;;4862801;29;20055;-63
2022/06/04 03:38:02;;;;;;;21.10;11.93;;;;;;;;;;4864022;29;20044;-62
2022/06/04 03:40:27;;;;;;;18.05;11.55;;;;;;;;;;4864629;29;20048;-64
2022/06/04 03:42:52;;;;;;;22.08;11.55;;;;;;;;;;4868167;29;20040;-63
2022/06/04 03:45:18;;;;;;;22.27;12.20;;;;;;;;;;4844955;29;20486;-63
2022/06/04 03:47:45;;;;;;;21.27;11.63;;;;;;;;;;4861781;29;20086;-63
2022/06/04 03:50:12;;;;;;;20.42;11.80;;;;;;;;;;4864453;29;20107;-62
2022/06/04 03:52:38;;;;;;;22.20;12.23;;;;;;;;;;4846578;29;20051;-62
2022/06/04 03:55:04;;;;;;;18.73;11.25;;;;;;;;;;4868000;29;20805;-63
2022/06/04 03:57:50;;;;;;;24.90;12.38;;;;;;;;;;4868420;29;20603;-63
2022/06/04 04:00:35;;;;;;;18.75;11.27;;;;;;;;;;4866992;29;20699;-63
2022/06/04 04:03:09;;;;;;;22.42;11.77;;;;;;;;;;4866690;29;20064;-63
2022/06/04 04:05:36;;;;;;;16.35;11.85;;;;;;;;;;4865016;29;20599;-63
2022/06/04 04:08:05;;;;;;;21.70;11.25;;;;;;;;;;4849029;29;20039;-63
2022/06/04 04:10:31;;;;;;;23.33;11.88;;;;;;;;;;4842321;29;20036;-63
2022/06/04 04:12:57;;;;;;;19.83;11.75;;;;;;;;;;4847848;29;22415;-62
2022/06/04 04:15:22;;;;;;;28.02;11.07;;;;;;;;;;4867975;29;20175;-64
2022/06/04 04:17:51;;;;;;;16.35;11.30;;;;;;;;;;4867533;29;20516;-62
2022/06/04 04:20:18;;;;;;;20.55;10.60;;;;;;;;;;4863438;29;20047;-61
2022/06/04 04:22:44;;;;;;;18.50;10.40;;;;;;;;;;4849675;29;20526;-62
2022/06/04 04:25:12;;;;;;;18.23;10.50;;;;;;;;;;4867350;29;20044;-63
2022/06/04 04:27:40;;;;;;;23.60;11.07;;;;;;;;;;4864341;29;20470;-62
2022/06/04 04:30:10;;;;;;;20.17;10.80;;;;;;;;;;4866071;29;20032;-64
2022/06/04 04:32:36;;;;;;;17.65;10.57;;;;;;;;;;4866649;29;20032;-64
2022/06/04 04:35:01;;;;;;;19.92;10.90;;;;;;;;;;4865909;29;20409;-63
2022/06/04 04:37:27;;;;;;;19.70;10.05;;;;;;;;;;4865276;29;20628;-63
2022/06/04 04:39:54;;;;;;;18.58;10.73;;;;;;;;;;4864733;29;20855;-62
2022/06/04 04:42:19;;;;;;;14.13;10.07;;;;;;;;;;4861627;29;20044;-63
2022/06/04 04:44:47;;;;;;;18.00;10.52;;;;;;;;;;4860735;29;20039;-63
2022/06/04 04:47:13;;;;;;;17.10;10.18;;;;;;;;;;4862534;29;20064;-64
2022/06/04 04:49:38;;;;;;;17.65;10.13;;;;;;;;;;4861797;29;20366;-63
2022/06/04 04:52:04;;;;;;;18.52;10.32;;;;;;;;;;4861875;29;20044;-64
2022/06/04 04:54:30;;;;;;;18.55;9.68;;;;;;;;;;4867519;29;20584;-63
2022/06/04 04:56:57;;;;;;;18.77;9.32;;;;;;;;;;4865031;29;20069;-63
2022/06/04 04:59:23;;;;;;;15.77;9.68;;;;;;;;;;4866073;29;20044;-63
2022/06/04 05:01:48;;;;;;;17.70;9.50;;;;;;;;;;4844540;29;20047;-62
2022/06/04 05:04:13;;;;;;;22.65;8.90;;;;;;;;;;4866749;29;20048;-63
2022/06/04 05:06:41;;;;;;;17.23;8.85;;;;;;;;;;4830540;29;20044;-65
2022/06/04 05:09:06;;;;;;;14.35;8.65;;;;;;;;;;4862065;29;20075;-63
2022/06/04 05:11:32;;;;;;;15.35;8.05;;;;;;;;;;4866839;29;20749;-63
2022/06/04 05:13:58;;;;;;;17.92;8.68;;;;;;;;;;4864997;29;20040;-63
2022/06/04 05:16:29;;;;;;;16.67;9.27;;;;;;;;;;4850030;29;20059;-62
2022/06/04 05:18:55;;;;;;;14.57;8.10;;;;;;;;;;4863266;29;20159;-62
2022/06/04 05:21:39;;;;;;;15.63;8.35;;;;;;;;;;4865197;29;20028;-63
2022/06/04 05:24:05;;;;;;;14.13;8.00;;;;;;;;;;4866385;29;21145;-63
2022/06/04 05:26:33;;;;;;;13.93;8.23;;;;;;;;;;4849928;29;20037;-62
2022/06/04 05:28:58;;;;;;;17.85;7.90;;;;;;;;;;4840792;29;20055;-63
2022/06/04 05:31:24;;;;;;;14.40;7.28;;;;;;;;;;4850531;29;20036;-62
2022/06/04 05:33:49;;;;;;;15.02;7.50;;;;;;;;;;4865771;29;20028;-62
2022/06/04 05:36:14;;;;;;;10.85;7.00;;;;;;;;;;4866057;29;20044;-65
2022/06/04 05:38:40;;;;;;;12.70;6.80;;;;;;;;;;4861691;29;20106;-64
2022/06/04 05:41:14;;;;;;;13.05;6.82;;;;;;;;;;4869199;29;20062;-62
2022/06/04 05:43:40;;;;;;;14.37;6.07;;;;;;;;;;4867388;29;20067;-63
2022/06/04 05:46:07;;;;;;;10.88;6.18;;;;;;;;;;4864610;29;20059;-61
2022/06/04 05:48:33;;;;;;;11.77;6.40;;;;;;;;;;4867254;29;20147;-62
2022/06/04 05:51:01;;;;;;;12.65;6.68;;;;;;;;;;4865693;29;20067;-62
2022/06/04 05:53:26;;;;;;;14.10;5.97;;;;;;;;;;4864150;29;20087;-63
2022/06/04 05:55:54;;;;;;;13.13;6.13;;;;;;;;;;4864832;29;20044;-64
2022/06/04 05:58:37;;;;;;;11.00;6.88;;;;;;;;;;4802706;29;20475;-64
2022/06/04 06:01:03;;;;;;;9.77;5.90;;;;;;;;;;4801381;29;20037;-63
2022/06/04 06:03:28;;;;;;;11.25;6.13;;;;;;;;;;4817408;29;20071;-63
2022/06/04 06:05:53;;;;;;;8.65;5.57;;;;;;;;;;4818136;29;20277;-63
2022/06/04 06:08:18;;;;;;;9.90;5.60;;;;;;;;;;4817203;29;20356;-64
2022/06/04 06:10:47;;;;;;;12.73;5.40;;;;;;;;;;4811111;29;20148;-62
2022/06/04 06:13:12;;;;;;;9.27;4.93;;;;;;;;;;4805395;29;20040;-63
2022/06/04 06:15:38;;;;;;;10.75;5.38;;;;;;;;;;4822495;29;20048;-63
2022/06/04 06:18:04;;;;;;;10.65;4.90;;;;;;;;;;4820531;29;20042;-62
2022/06/04 06:20:29;;;;;;;9.90;5.25;;;;;;;;;;4805293;29;20045;-63
2022/06/04 06:22:55;;;;;;;7.28;4.90;;;;;;;;;;4821682;29;20037;-63
2022/06/04 06:25:20;;;;;;;10.05;5.20;;;;;;;;;;4809750;29;20065;-63
2022/06/04 06:27:45;;;;;;;10.88;5.22;;;;;;;;;;4821655;29;20484;-63
2022/06/04 06:30:11;;;;;;;11.05;4.97;;;;;;;;;;4836207;29;20059;-63
2022/06/04 06:32:36;;;;;;;8.70;5.05;;;;;;;;;;4866094;29;20162;-63
2022/06/04 06:35:02;;;;;;;8.38;4.93;;;;;;;;;;4865674;29;20254;-63
2022/06/04 06:37:27;;;;;;;8.88;4.63;;;;;;;;;;4844999;29;20102;-64
2022/06/04 06:39:54;;;;;;;10.55;4.70;;;;;;;;;;4866145;29;20545;-63
2022/06/04 06:42:19;;;;;;;11.55;4.68;;;;;;;;;;4831125;29;20043;-63
2022/06/04 06:44:47;;;;;;;9.50;4.75;;;;;;;;;;4863182;29;20044;-63
2022/06/04 06:47:15;;;;;;;8.52;4.53;;;;;;;;;;4847080;29;20524;-63
2022/06/04 06:49:41;;;;;;;11.23;5.32;;;;;;;;;;4863242;29;20086;-62
2022/06/04 06:52:06;;;;;;;9.80;4.85;;;;;;;;;;4865527;29;20108;-63
2022/06/04 06:54:35;;;;;;;6.80;4.60;;;;;;;;;;4864675;29;20650;-65
2022/06/04 06:57:01;;;;;;;10.20;4.55;;;;;;;;;;4864557;29;20056;-64
2022/06/04 06:59:27;;;;;;;9.43;4.63;;;;;;;;;;4844216;29;20028;-63
2022/06/04 07:01:53;;;;;;;9.95;4.88;;;;;;;;;;4864480;29;20495;-64
2022/06/04 07:04:19;;;;;;;8.43;4.53;;;;;;;;;;4840478;29;20115;-64
2022/06/04 07:06:48;;;;;;;8.75;5.03;;;;;;;;;;4843720;29;20705;-64
2022/06/04 07:09:24;;;;;;;10.55;4.45;;;;;;;;;;4862785;29;20753;-62
2022/06/04 07:11:50;;;;;;;7.30;4.38;;;;;;;;;;4862646;29;20390;-62
2022/06/04 07:14:17;;;;;;;10.52;4.70;;;;;;;;;;4862903;29;20206;-62
2022/06/04 07:16:42;;;;;;;9.73;4.75;;;;;;;;;;4835798;29;20082;-62
2022/06/04 07:19:09;;;;;;;7.32;4.20;;;;;;;;;;4861593;29;20032;-63
2022/06/04 07:21:34;;;;;;;7.82;4.68;;;;;;;;;;4861051;29;20552;-63
2022/06/04 07:24:00;;;;;;;8.75;4.78;;;;;;;;;;4862226;29;20032;-63
2022/06/04 07:26:26;;;;;;;8.00;4.30;;;;;;;;;;4862395;29;20088;-62
2022/06/04 07:28:51;;;;;;;8.25;4.97;;;;;;;;;;4863788;29;20685;-63
2022/06/04 07:31:16;;;;;;;6.85;4.40;;;;;;;;;;4863378;29;21875;-61
2022/06/04 07:33:43;;;;;;;8.00;4.50;;;;;;;;;;4863279;29;20344;-64
2022/06/04 07:36:12;;;;;;;8.88;4.47;;;;;;;;;;4834315;29;20495;-63
2022/06/04 07:38:38;;;;;;;5.68;4.00;;;;;;;;;;4860395;29;20115;-63
2022/06/04 07:41:03;;;;;;;7.97;4.43;;;;;;;;;;4846982;29;20044;-62
2022/06/04 07:43:28;;;;;;;6.32;4.38;;;;;;;;;;4865781;29;20188;-64
2022/06/04 07:45:56;;;;;;;7.90;4.43;;;;;;;;;;4847485;29;20438;-64
2022/06/04 07:48:22;;;;;;;7.15;4.60;;;;;;;;;;4847036;29;20472;-62
2022/06/04 07:50:47;;;;;;;7.18;4.60;;;;;;;;;;4862412;29;20798;-63
2022/06/04 07:53:12;;;;;;;9.23;4.03;;;;;;;;;;4847641;29;20040;-62
2022/06/04 07:55:39;;;;;;;8.27;4.28;;;;;;;;;;4865206;29;20148;-63
2022/06/04 07:58:04;;;;;;;10.43;4.72;;;;;;;;;;4862127;29;20205;-63
2022/06/04 08:00:37;;;;;;;8.82;4.70;;;;;;;;;;4863374;29;20047;-63
2022/06/04 08:03:02;;;;;;;7.45;4.10;;;;;;;;;;4863926;29;20044;-63
2022/06/04 08:05:27;;;;;;;12.00;4.57;;;;;;;;;;4850788;29;20047;-62
2022/06/04 08:07:53;;;;;;;6.80;4.38;;;;;;;;;;4864531;29;20076;-63
2022/06/04 08:10:18;;;;;;;9.20;4.32;;;;;;;;;;4862109;29;20035;-62
2022/06/04 08:12:47;;;;;;;8.98;4.00;;;;;;;;;;4849133;29;21919;-64
2022/06/04 08:15:14;;;;;;;6.82;4.20;;;;;;;;;;4862497;29;20814;-64
2022/06/04 08:17:39;;;;;;;6.88;4.38;;;;;;;;;;4864849;29;20062;-64
2022/06/04 08:20:15;;;;;;;8.45;3.88;;;;;;;;;;4865092;29;20375;-63
2022/06/04 08:22:40;;;;;;;7.05;4.00;;;;;;;;;;4848322;29;20135;-62
2022/06/04 08:25:06;;;;;;;7.05;4.22;;;;;;;;;;4845630;29;20251;-63
2022/06/04 08:27:31;;;;;;;6.50;3.65;;;;;;;;;;4846413;29;20151;-62
2022/06/04 08:29:57;;;;;;;6.97;4.00;;;;;;;;;;4856886;29;20040;-64
2022/06/04 08:32:22;;;;;;;6.43;4.15;;;;;;;;;;4862904;29;20564;-63
2022/06/04 08:34:48;;;;;;;6.35;3.90;;;;;;;;;;4859554;29;20167;-64
2022/06/04 08:37:13;;;;;;;7.93;3.80;;;;;;;;;;4862142;29;20043;-63
2022/06/04 08:39:38;;;;;;;8.85;3.90;;;;;;;;;;4859171;29;20095;-62
2022/06/04 08:42:10;;;;;;;7.53;3.78;;;;;;;;;;4846710;29;20043;-62
2022/06/04 08:44:38;;;;;;;6.60;3.72;;;;;;;;;;4863200;29;20813;-62
2022/06/04 08:47:17;;;;;;;7.68;4.05;;;;;;;;;;4863481;29;20052;-64
2022/06/04 08:49:48;;;;;;;6.43;3.65;;;;;;;;;;4863180;29;20028;-63
2022/06/04 08:52:30;;;;;;;5.32;3.95;;;;;;;;;;4843074;29;20032;-62
2022/06/04 08:58:02;;;;;;;6.60;4.05;;;;;;;;;;4862280;29;20056;-63
2022/06/04 09:00:30;;;;;;;5.80;4.30;;;;;;;;;;4860595;29;20080;-65
2022/06/04 09:03:04;;;;;;;6.97;3.55;;;;;;;;;;4863189;29;20044;-65
2022/06/04 09:05:45;;;;;;;5.68;3.80;;;;;;;;;;4860733;29;20326;-64
2022/06/04 09:08:14;;;;;;;6.72;4.10;;;;;;;;;;4862719;29;20102;-64
2022/06/04 09:10:41;;;;;;;;;;;;;;;;;;4865662;29;20028;-65
2022/06/04 09:13:17;;;;;;;7.00;4.40;;;;;;;;;;4867464;29;19926;-65
2022/06/04 09:15:45;;;;;;;6.55;4.20;;;;;;;;;;4864599;29;20588;-62
2022/06/04 09:18:18;;;;;;;8.00;4.40;;;;;;;;;;4844911;29;20044;-64
2022/06/04 09:20:48;;;;;;;7.85;3.80;;;;;;;;;;4865349;29;20163;-64
2022/06/04 09:23:26;;;;;;;9.52;3.85;;;;;;;;;;4865169;29;21223;-62
2022/06/04 09:25:55;;;;;;;6.03;3.97;;;;;;;;;;4864685;29;20040;-63
2022/06/04 09:28:30;;;;;;;6.85;4.03;;;;;;;;;;4864682;29;20796;-62
2022/06/04 09:31:13;;;;;;;8.80;4.10;;;;;;;;;;4864808;29;20036;-64
2022/06/04 09:33:45;;;;;;;8.63;4.03;;;;;;;;;;4864980;29;20040;-64
2022/06/04 09:36:12;;;;;;;7.68;4.60;;;;;;;;;;4846576;29;20036;-64
2022/06/04 09:38:37;;;;;;;8.35;4.13;;;;;;;;;;4843922;29;20132;-63
2022/06/04 09:41:04;;;;;;;8.25;3.95;;;;;;;;;;4862534;29;21141;-63
2022/06/04 09:43:30;;;;;;;10.15;4.78;;;;;;;;;;4846931;29;20123;-63
2022/06/04 09:46:00;;;;;;;6.70;4.43;;;;;;;;;;4864871;29;20779;-64
2022/06/04 09:48:29;;;;;;;6.30;4.10;;;;;;;;;;4865043;29;20047;-64
2022/06/04 09:50:57;;;;;;;6.75;3.92;;;;;;;;;;4863326;29;20056;-64
2022/06/04 09:53:28;;;;;;;6.88;4.07;;;;;;;;;;4863036;29;20044;-63
2022/06/04 09:55:56;;;;;;;5.63;4.40;;;;;;;;;;4864401;29;20032;-63
2022/06/04 09:58:26;;;;;;;7.28;4.47;;;;;;;;;;4864922;29;20052;-63
2022/06/04 10:00:56;;;;;;;6.22;4.40;;;;;;;;;;4862162;29;20051;-62
2022/06/04 10:03:22;;;;;;;8.52;4.20;;;;;;;;;;4863516;29;21492;-62
2022/06/04 10:05:52;;;;;;;7.47;4.57;;;;;;;;;;4861376;29;20143;-62
2022/06/04 10:08:24;;;;;;;6.18;4.10;;;;;;;;;;4860328;29;20088;-62
2022/06/04 10:10:49;;;;;;;8.05;4.88;;;;;;;;;;4864440;29;20616;-62
2022/06/04 10:16:14;;;;;;;10.63;4.70;;;;;;;;;;4864631;29;20048;-62
2022/06/04 10:18:40;;;;;;;8.50;4.63;;;;;;;;;;4862190;29;20032;-61
2022/06/04 10:21:09;;;;;;;6.63;4.18;;;;;;;;;;4864524;29;21370;-62
2022/06/04 10:24:04;;;;;;;5.93;3.97;;;;;;;;;;4861349;29;20757;-61
2022/06/04 10:26:46;;;;;;;7.43;4.45;;;;;;;;;;4857098;29;20055;-61
2022/06/04 10:29:26;;;;;;;7.82;4.70;;;;;;;;;;4844059;29;20059;-62
2022/06/04 10:32:07;;;;;;;5.30;4.43;;;;;;;;;;4858315;29;20719;-61
2022/06/04 10:34:58;;;;;;;8.07;4.30;;;;;;;;;;4863048;29;20032;-61
2022/06/04 10:37:31;;;;;;;6.20;3.75;;;;;;;;;;4864388;29;20046;-61
2022/06/04 10:40:22;;;;;;;5.78;3.70;;;;;;;;;;4863149;29;20047;-62
2022/06/04 10:42:59;;;;;;;6.55;3.83;;;;;;;;;;4861938;29;20044;-61
2022/06/04 10:45:25;;;;;;;6.60;4.30;;;;;;;;;;4858335;29;20115;-62
2022/06/04 10:48:03;;;;;;;6.32;4.13;;;;;;;;;;4862119;29;20123;-61
2022/06/04 10:53:43;;;;;;;6.97;4.28;;;;;;;;;;4861186;29;20116;-60
2022/06/04 10:56:13;;;;;;;9.65;4.93;;;;;;;;;;4865209;29;20227;-61
2022/06/04 10:58:45;;;;;;;7.13;4.57;;;;;;;;;;4865773;29;20056;-61
2022/06/04 11:01:20;;;;;;;6.90;4.22;;;;;;;;;;4865685;29;20043;-61
2022/06/04 11:03:46;;;;;;;7.63;4.32;;;;;;;;;;4867453;29;20040;-61
2022/06/04 11:06:23;;;;;;;7.50;4.55;;;;;;;;;;4866228;29;20039;-61
2022/06/04 11:08:53;;;;;;;8.98;4.43;;;;;;;;;;4862776;29;20155;-62
2022/06/04 11:11:29;;;;;;;6.43;4.15;;;;;;;;;;4864467;29;20097;-62
2022/06/04 11:13:59;;;;;;;6.72;4.32;;;;;;;;;;4864518;29;20047;-63
2022/06/04 11:16:28;;;;;;;7.13;4.47;;;;;;;;;;4865203;29;20810;-63
2022/06/04 11:18:57;;;;;;;6.13;4.63;;;;;;;;;;4866206;29;20043;-62
2022/06/04 11:21:22;;;;;;;6.93;4.30;;;;;;;;;;4864478;29;20036;-62
2022/06/04 11:23:53;;;;;;;6.30;4.35;;;;;;;;;;4866472;29;20143;-62
2022/06/04 11:26:21;;;;;;;7.18;4.50;;;;;;;;;;4866158;29;21003;-63
2022/06/04 11:28:47;;;;;;;8.90;4.20;;;;;;;;;;4863082;29;20079;-63
2022/06/04 11:31:44;;;;;;;6.45;4.35;;;;;;;;;;4862509;29;20051;-62
2022/06/04 11:34:10;;;;;;;8.73;5.05;;;;;;;;;;4834733;29;20051;-63
2022/06/04 11:36:44;;;;;;;6.70;5.10;;;;;;;;;;4860890;29;20051;-62
2022/06/04 11:39:27;;;;;;;8.68;5.03;;;;;;;;;;4862508;29;20672;-62
2022/06/04 11:42:05;;;;;;;8.75;5.00;;;;;;;;;;4865478;29;20040;-62
2022/06/04 11:44:30;;;;;;;7.78;4.90;;;;;;;;;;4839236;29;20429;-63
2022/06/04 11:47:11;;;;;;;7.97;4.90;;;;;;;;;;4861599;29;21190;-62
2022/06/04 11:49:56;;;;;;;7.65;4.43;;;;;;;;;;4858254;29;20315;-63
2022/06/04 11:52:21;;;;;;;8.25;4.95;;;;;;;;;;4861730;29;20032;-63
2022/06/04 11:54:59;;;;;;;7.18;4.60;;;;;;;;;;4859944;29;20071;-65
2022/06/04 11:57:24;;;;;;;8.20;4.65;;;;;;;;;;4847335;29;20072;-64
2022/06/04 12:00:25;;;;;;;7.05;4.22;;;;;;;;;;4862661;29;20044;-66
2022/06/04 12:03:04;;;;;;;8.70;4.20;;;;;;;;;;4782132;29;20869;-65
2022/06/04 12:05:36;;;;;;;5.78;4.35;;;;;;;;;;4845346;29;20047;-65
2022/06/04 12:08:04;;;;;;;7.15;4.85;;;;;;;;;;4859275;29;20092;-66
2022/06/04 12:10:48;;;;;;;5.65;4.45;;;;;;;;;;4861468;29;20070;-67
2022/06/04 12:13:24;;;;;;;8.48;3.90;;;;;;;;;;4863891;29;20036;-64
2022/06/04 12:16:04;;;;;;;6.53;4.00;;;;;;;;;;4840135;29;20040;-67
2022/06/04 12:18:32;;;;;;;6.93;4.32;;;;;;;;;;4864040;29;21019;-67
2022/06/04 12:26:31;;;;;;;8.10;4.38;;;;;;;;;;4861599;29;20132;-71
2022/06/04 12:28:59;;;;;;;5.88;4.13;;;;;;;;;;4865280;29;20103;-71
2022/06/04 12:31:27;;;;;;;5.07;3.47;;;;;;;;;;4858435;29;20583;-68
2022/06/04 12:33:54;;;;;;;6.13;4.15;;;;;;;;;;4861486;29;20059;-68
2022/06/04 12:36:32;;;;;;;5.82;3.72;;;;;;;;;;4857982;29;20986;-67
2022/06/04 12:39:16;;;;;;;5.43;3.38;;;;;;;;;;4860102;29;20106;-68
2022/06/04 12:41:44;;;;;;;7.18;3.88;;;;;;;;;;4825213;29;20052;-66
2022/06/04 12:44:23;;;;;;;6.85;3.67;;;;;;;;;;4824422;29;22622;-66
2022/06/04 12:46:49;;;;;;;6.15;4.15;;;;;;;;;;4841063;29;20111;-66
2022/06/04 12:49:33;;;;;;;7.95;4.10;;;;;;;;;;4841788;29;20045;-68
2022/06/04 12:52:07;;;;;;;6.97;4.22;;;;;;;;;;4838108;29;20036;-66
2022/06/04 12:54:41;;;;;;;6.78;4.28;;;;;;;;;;4841128;29;20048;-65
2022/06/04 12:57:40;;;;;;;6.88;4.32;;;;;;;;;;4835536;29;20045;-63
2022/06/04 13:00:20;;;;;;;8.20;4.45;;;;;;;;;;4773877;29;20068;-64
2022/06/04 13:03:04;;;;;;;7.57;4.85;;;;;;;;;;4834925;29;20056;-65
2022/06/04 13:05:30;;;;;;;9.43;4.63;;;;;;;;;;4840549;29;20497;-64
2022/06/04 13:08:31;;;;;;;7.15;4.63;;;;;;;;;;4839040;29;20071;-64
2022/06/04 13:11:11;;;;;;;7.60;5.13;;;;;;;;;;4744612;29;20235;-64
2022/06/04 13:13:39;;;;;;;10.40;5.22;;;;;;;;;;4829419;29;20666;-63
2022/06/04 13:16:14;;;;;;;7.35;4.40;;;;;;;;;;4842130;29;20397;-64
2022/06/04 13:18:40;;;;;;;10.02;5.50;;;;;;;;;;4840543;29;20136;-64
2022/06/04 13:21:13;;;;;;;8.43;5.03;;;;;;;;;;4838278;29;20044;-65
2022/06/04 13:23:46;;;;;;;6.25;4.30;;;;;;;;;;4834874;29;20043;-66
2022/06/04 13:26:25;;;;;;;6.90;4.57;;;;;;;;;;4841105;29;20115;-69
2022/06/04 13:28:51;;;;;;;5.82;3.95;;;;;;;;;;4840081;29;20317;-69
2022/06/04 13:31:21;;;;;;;6.30;3.97;;;;;;;;;;4835068;29;20060;-68
2022/06/04 13:33:46;;;;;;;5.40;4.05;;;;;;;;;;4840925;29;20037;-69
2022/06/04 13:36:14;;;;;;;5.47;3.85;;;;;;;;;;4840417;29;20569;-67
2022/06/04 13:38:41;;;;;;;7.07;3.80;;;;;;;;;;4837867;29;20036;-66
2022/06/04 13:42:00;;;;;;;6.25;4.03;;;;;;;;;;4853615;29;20143;-66
2022/06/04 13:44:07;;;;;;;4.90;3.60;;;;;;;;;;4859591;29;20040;-68
2022/06/04 13:46:36;;;;;;;8.60;3.78;;;;;;;;;;4859153;29;20299;-68
2022/06/04 13:49:09;;;;;;;8.48;3.70;;;;;;;;;;4855575;29;20264;-67
2022/06/04 13:51:38;;;;;;;7.40;3.72;;;;;;;;;;4858907;29;20050;-67
2022/06/04 13:54:03;;;;;;;9.45;3.95;;;;;;;;;;4859763;29;21639;-69
2022/06/04 13:56:35;;;;;;;8.05;3.67;;;;;;;;;;4851306;29;20042;-67
2022/06/04 13:59:00;;;;;;;6.75;3.30;;;;;;;;;;4858772;29;20413;-68
2022/06/04 14:01:31;;;;;;;6.93;3.65;;;;;;;;;;4858675;29;20290;-68
2022/06/04 14:06:41;;;;;;;8.13;3.90;;;;;;;;;;4858249;29;20032;-67
2022/06/04 14:09:07;;;;;;;6.45;3.88;;;;;;;;;;4837753;29;20738;-67
2022/06/04 14:11:51;;;;;;;6.95;3.72;;;;;;;;;;4860418;29;20060;-68
2022/06/04 14:14:25;;;;;;;9.15;3.80;;;;;;;;;;4857938;29;20254;-68
2022/06/04 14:17:10;;;;;;;6.65;3.97;;;;;;;;;;4858589;29;20037;-67
2022/06/04 14:19:47;;;;;;;6.45;3.72;;;;;;;;;;4857166;29;20194;-67
2022/06/04 14:22:12;;;;;;;7.93;3.83;;;;;;;;;;4860785;29;20032;-67
2022/06/04 14:24:56;;;;;;;7.43;3.60;;;;;;;;;;4858401;29;20068;-67
2022/06/04 14:27:27;;;;;;;7.07;4.00;;;;;;;;;;4860742;29;20040;-69
2022/06/04 14:29:53;;;;;;;8.35;3.25;;;;;;;;;;4861554;29;20032;-68
2022/06/04 14:32:18;;;;;;;6.63;4.00;;;;;;;;;;4863362;29;20695;-68
2022/06/04 14:34:44;;;;;;;5.18;3.55;;;;;;;;;;4851520;29;20351;-67
2022/06/04 14:37:10;;;;;;;6.68;3.58;;;;;;;;;;4860960;29;20808;-70
2022/06/04 14:39:39;;;;;;;9.10;3.80;;;;;;;;;;4861862;29;20051;-69
2022/06/04 14:42:15;;;;;;;6.68;3.80;;;;;;;;;;4862015;29;20108;-68
2022/06/04 14:44:58;;;;;;;8.50;3.97;;;;;;;;;;4860953;29;20120;-66
2022/06/04 14:47:43;;;;;;;7.65;4.18;;;;;;;;;;4862209;29;20135;-68
2022/06/04 14:50:28;;;;;;;7.50;4.32;;;;;;;;;;4861778;29;20332;-68
2022/06/04 14:53:00;;;;;;;9.30;4.45;;;;;;;;;;4860786;29;20036;-67
2022/06/04 14:55:46;;;;;;;7.95;4.50;;;;;;;;;;4846788;29;20040;-68
2022/06/04 14:58:21;;;;;;;6.38;3.50;;;;;;;;;;4863185;29;20207;-68
2022/06/04 15:00:56;;;;;;;7.53;4.25;;;;;;;;;;4851108;29;20048;-67
2022/06/04 15:03:41;;;;;;;11.13;4.30;;;;;;;;;;4861267;29;20037;-64
2022/06/04 15:06:07;;;;;;;9.43;4.40;;;;;;;;;;4836310;29;20108;-64
2022/06/04 15:08:49;;;;;;;6.88;4.10;;;;;;;;;;4861599;29;20071;-64
2022/06/04 15:11:30;;;;;;;9.88;4.00;;;;;;;;;;4863699;29;20043;-63
2022/06/04 15:13:58;;;;;;;6.30;4.18;;;;;;;;;;4866085;29;20036;-65